• Join FlightAware (Why Join?)
  • Login
  • US Flag 
08:39AM EDT


 

Airport Tracker/Info


-or-


 

Live Flight TrackerFlight Track Log ✈ N935SS ✈ 10-Sep-2013 ✈ KBED - CYVR

Flight Track Log - Related Links

Times and Time Zones

All times are in EDT time to prevent confusion due to time zone crossing. See the N935SS flight status page for this flight to view local times or setup timezone preferences in your user account.

Time Position Orientation Groundspeed Altitude Reporting Facility
EDT Latitude Longitude Course Direction KTS MPH feet Rate Location/Type
07:31AM 42.4667 -71.3167 324° Northwest 188 216 1,100  Level KA90
07:32AM 42.5333 -71.3833 324° Northwest 266 306 4,200 2,640 Climbing KA90
07:34AM 42.6431 -71.3364 17° North 299 344 9,000 2,460 Climbing Boston Center
07:35AM 42.7303 -71.3011 17° North 293 337 11,000 1,620 Climbing Boston Center
07:36AM 42.7872 -71.3650 321° Northwest 269 310 12,300 1,620 Climbing Boston Center
07:37AM 42.8028 -71.4950 279° West 273 314 14,300 1,920 Climbing Boston Center
07:38AM 42.8122 -71.6053 277° West 310 357 16,200 1,800 Climbing Boston Center
07:39AM 42.8256 -71.7381 278° West 319 367 18,000 1,560 Climbing Boston Center
07:40AM 42.8364 -71.8428 278° West 324 373 19,400 1,380 Climbing Boston Center
07:41AM 42.8475 -71.9700 277° West 319 367 20,800 1,500 Climbing Boston Center
07:42AM 42.8583 -72.0719 278° West 313 360 22,500 1,500 Climbing Boston Center
07:43AM 42.8733 -72.1908 280° West 313 360 23,800 1,200 Climbing Boston Center
07:44AM 42.9256 -72.3069 302° West 313 360 24,900 1,020 Climbing Boston Center
07:45AM 42.9631 -72.4258 293° West 329 379 25,900 960 Climbing Boston Center
07:46AM 43.0069 -72.5422 297° West 340 391 26,900 960 Climbing Boston Center
07:47AM 43.0442 -72.6617 293° West 340 391 27,900 960 Climbing Boston Center
07:48AM 43.0875 -72.7842 296° West 345 397 28,900 960 Climbing Boston Center
07:49AM 43.1308 -72.9067 296° West 350 403 29,900 900 Climbing Boston Center
07:50AM 43.1742 -73.0236 297° West 363 418 30,800 900 Climbing Boston Center
07:51AM 43.2194 -73.1494 296° West 368 423 31,800 960 Climbing Boston Center
07:52AM 43.2769 -73.2642 305° West 362 417 32,800 960 Climbing Boston Center
07:53AM 43.3450 -73.3508 317° Northwest 362 417 33,800 600 Climbing Boston Center
07:54AM 43.4294 -73.4664 315° West 357 411 34,000 240 Climbing Boston Center
07:55AM 43.4908 -73.5878 305° West 371 427 34,400 1,080 Climbing Boston Center
07:56AM 43.5439 -73.7061 302° West 379 436 36,200 1,260 Climbing Boston Center
07:57AM 43.5903 -73.8275 298° West 363 418 37,000 540 Climbing Boston Center
07:58AM 43.6367 -73.9461 298° West 356 410 37,300 240 Climbing Boston Center
07:59AM 43.6833 -74.0536 301° West 356 410 37,500 300 Climbing Boston Center
08:00AM 43.7272 -74.1811 296° West 362 417 38,000 240 Climbing Boston Center
08:01AM 43.7750 -74.3147 296° West 372 428 38,000  Level Boston Center
08:02AM 43.8250 -74.4431 298° West 378 435 38,000  Level Boston Center
08:03AM 43.8811 -74.5686 302° West 383 441 38,000  Level Boston Center
08:04AM 43.9392 -74.6892 304° West 383 441 38,000  Level Boston Center
08:05AM 43.9908 -74.8150 300° West 377 434 38,000  Level Boston Center
08:06AM 44.0381 -74.9469 297° West 377 434 38,000  Level Boston Center
08:07AM 44.0833 -75.0675 298° West 388 447 38,000  Level Boston Center
08:08AM 44.1336 -75.2344 293° West 388 447 38,000  Level Boston Center
08:09AM 44.1758 -75.3756 293° West 393 452 38,000  Level Boston Center
08:10AM 44.2181 -75.5167 293° West 398 458 38,000  Level Boston Center
08:11AM 44.2619 -75.6667 292° West 398 458 38,000  Level Boston Center
08:12AM 44.3078 -75.8114 294° West 398 458 38,000  Level Boston Center
08:13AM 44.3514 -75.9561 293° West 398 458 38,000  Level Boston Center
08:14AM 44.4000 -76.1500 289° West 410 472 38,000  Level Montreal Center
08:15AM 44.4500 -76.3000 295° West 420 483 38,000  Level Montreal Center
08:16AM 44.5000 -76.4667 293° West 420 483 38,000  Level Montreal Center
08:17AM 44.5667 -76.6000 305° West 430 495 38,000  Level Montreal Center
08:18AM 44.6167 -76.7500 295° West 430 495 38,000  Level Montreal Center
08:19AM 44.6833 -76.8833 305° West 430 495 38,000  Level Montreal Center
08:20AM 44.7333 -77.0500 293° West 420 483 38,000  Level Montreal Center
08:21AM 44.7833 -77.2000 295° West 420 483 38,000  Level Montreal Center
08:22AM 44.8500 -77.3167 309° West 410 472 38,000  Level Montreal Center
08:23AM 44.8833 -77.3667 313° West 410 472 38,000  Level Toronto Center
08:24AM 44.9333 -77.5167 295° West 410 472 38,000  Level Toronto Center
08:25AM 44.9833 -77.6500 298° West 410 472 38,000 120 Level Toronto Center
08:26AM 45.0333 -77.8000 295° West 410 472 38,300 540 Climbing Toronto Center
08:27AM 45.0833 -77.9333 298° West 400 460 39,100 720 Climbing Toronto Center
08:28AM 45.1333 -78.0667 298° West 400 460 39,800 420 Climbing Toronto Center
08:29AM 45.1833 -78.2167 295° West 400 460 40,000 60 Climbing Toronto Center
08:30AM 45.2333 -78.3500 298° West 400 460 40,000  Level Toronto Center
08:31AM 45.3000 -78.5000 302° West 410 472 40,000  Level Toronto Center
08:32AM 45.3500 -78.6333 298° West 410 472 40,000  Level Toronto Center
08:33AM 45.4000 -78.7833 295° West 410 472 40,000  Level Toronto Center
08:34AM 45.4500 -78.9500 293° West 410 472 40,000  Level Toronto Center
08:35AM 45.5000 -79.0833 298° West 410 472 40,000  Level Toronto Center
08:36AM 45.5500 -79.2333 295° West 420 483 40,000  Level Toronto Center
08:37AM 45.6000 -79.3667 298° West 410 472 40,000  Level Toronto Center
08:38AM 45.6500 -79.5333 293° West 410 472 40,000  Level Toronto Center
08:39AM 45.7000 -79.6833 296° West 410 472 40,000  Level Toronto Center
08:40AM 45.7500 -79.8167 298° West 410 472 40,000  Level Toronto Center
08:41AM 45.8000 -79.9667 296° West 410 472 40,000  Level Toronto Center
08:42AM 45.8500 -80.1167 296° West 410 472 40,000  Level Toronto Center
08:43AM 45.9167 -80.2500 306° West 410 472 40,000  Level Toronto Center
08:44AM 45.9667 -80.4000 296° West 410 472 40,000  Level Toronto Center
08:45AM 46.0000 -80.5500 288° West 410 472 40,000  Level Toronto Center
08:46AM 46.0667 -80.7167 300° West 410 472 40,000  Level Toronto Center
08:47AM 46.1000 -80.8500 290° West 410 472 40,000  Level Toronto Center
08:48AM 46.1500 -81.0000 296° West 410 472 40,000  Level Toronto Center
08:49AM 46.2000 -81.1500 296° West 410 472 40,000  Level Toronto Center
08:50AM 46.2500 -81.3000 296° West 410 472 40,000  Level Toronto Center
08:51AM 46.3000 -81.4500 296° West 400 460 40,000  Level Toronto Center
08:52AM 46.3500 -81.5833 299° West 400 460 40,000  Level Toronto Center
08:53AM 46.4000 -81.7333 296° West 400 460 40,000  Level Toronto Center
08:54AM 46.4500 -81.8833 296° West 400 460 40,000  Level Toronto Center
08:55AM 46.4833 -82.0333 288° West 400 460 40,000  Level Toronto Center
08:56AM 46.5333 -82.1833 296° West 400 460 40,000  Level Toronto Center
08:57AM 46.5667 -82.3167 290° West 400 460 40,000  Level Toronto Center
08:58AM 46.6333 -82.4667 303° West 400 460 40,000  Level Toronto Center
08:59AM 46.6833 -82.6167 296° West 410 472 40,000  Level Toronto Center
09:00AM 46.7167 -82.7667 288° West 410 472 40,000  Level Toronto Center
09:01AM 46.7667 -82.9167 296° West 400 460 40,000  Level Toronto Center
09:02AM 46.8167 -83.0667 296° West 400 460 40,000  Level Toronto Center
09:03AM 46.8667 -83.2167 296° West 400 460 40,000  Level Toronto Center
09:04AM 46.9000 -83.3667 288° West 400 460 40,000  Level Toronto Center
09:05AM 46.9333 -83.5167 288° West 400 460 40,000  Level Toronto Center
09:06AM 46.9833 -83.6667 296° West 400 460 40,000  Level Toronto Center
09:07AM 47.0167 -83.8167 288° West 400 460 40,000  Level Toronto Center
09:08AM 47.0667 -83.9667 296° West 400 460 40,000  Level Toronto Center
09:09AM 47.1167 -84.1167 296° West 400 460 40,000  Level Toronto Center
09:10AM 47.1500 -84.2667 288° West 400 460 40,000  Level Toronto Center
09:11AM 47.2000 -84.4167 296° West 400 460 40,000  Level Toronto Center
09:12AM 47.2500 -84.5667 296° West 400 460 40,000  Level Toronto Center
09:13AM 47.2833 -84.7167 288° West 400 460 40,000  Level Toronto Center
09:14AM 47.3333 -84.8667 296° West 400 460 40,000  Level Toronto Center
09:15AM 47.3833 -85.0167 296° West 400 460 40,000  Level Toronto Center
09:16AM 47.4167 -85.1833 287° West 400 460 40,000  Level Toronto Center
09:17AM 47.4667 -85.3333 296° West 390 449 40,000  Level Toronto Center
09:18AM 47.5000 -85.4500 293° West 390 449 40,000  Level Toronto Center
09:19AM 47.5500 -85.6167 294° West 390 449 40,000  Level Toronto Center
09:20AM 47.5667 -85.7000 287° West 390 449 40,000  Level Winnipeg Center
09:21AM 47.6167 -85.8333 299° West 390 449 40,000  Level Winnipeg Center
09:22AM 47.6333 -85.9833 279° West 390 449 40,000  Level Winnipeg Center
09:23AM 47.6833 -86.1167 299° West 390 449 40,000  Level Winnipeg Center
09:24AM 47.7167 -86.2833 287° West 390 449 40,000  Level Winnipeg Center
09:25AM 47.7667 -86.4333 296° West 390 449 40,000  Level Winnipeg Center
09:26AM 47.8000 -86.5667 290° West 380 437 40,000  Level Winnipeg Center
09:27AM 47.8500 -86.7167 296° West 380 437 40,000  Level Winnipeg Center
09:28AM 47.8833 -86.8833 287° West 390 449 40,000  Level Winnipeg Center
09:29AM 47.9167 -87.0333 288° West 390 449 40,000  Level Winnipeg Center
09:30AM 47.9500 -87.1667 291° West 390 449 40,000  Level Winnipeg Center
09:31AM 48.0000 -87.3333 294° West 390 449 40,000  Level Winnipeg Center
09:32AM 48.0333 -87.4833 288° West 390 449 40,000  Level Winnipeg Center
09:33AM 48.0833 -87.6167 299° West 390 449 40,000  Level Winnipeg Center
09:34AM 48.1000 -87.7667 280° West 390 449 40,000  Level Winnipeg Center
09:35AM 48.1500 -87.9333 294° West 390 449 40,000  Level Winnipeg Center
09:36AM 48.1833 -88.0833 288° West 390 449 40,000  Level Winnipeg Center
09:37AM 48.2167 -88.2333 288° West 390 449 40,000  Level Winnipeg Center
09:38AM 48.2667 -88.4000 294° West 380 437 40,000  Level Winnipeg Center
09:39AM 48.2833 -88.5333 281° West 380 437 40,000  Level Winnipeg Center
09:40AM 48.3333 -88.6833 297° West 380 437 40,000  Level Winnipeg Center
09:41AM 48.3667 -88.8333 289° West 380 437 40,000  Level Winnipeg Center
09:42AM 48.4000 -88.9833 289° West 380 437 40,000  Level Winnipeg Center
09:43AM 48.4333 -89.1167 291° West 380 437 40,000  Level Winnipeg Center
09:44AM 48.4833 -89.3000 292° West 380 437 40,000  Level Winnipeg Center
09:45AM 48.5000 -89.4333 281° West 380 437 40,000  Level Winnipeg Center
09:46AM 48.5500 -89.5833 297° West 400 460 40,000  Level Winnipeg Center
09:47AM 48.5667 -89.7333 280° West 380 437 40,000  Level Winnipeg Center
09:48AM 48.6167 -89.8833 297° West 380 437 40,000  Level Winnipeg Center
09:49AM 48.6500 -90.0333 289° West 380 437 40,000  Level Winnipeg Center
09:50AM 48.6833 -90.1667 291° West 380 437 40,000  Level Winnipeg Center
09:51AM 48.7167 -90.3500 285° West 370 426 40,000  Level Winnipeg Center
09:52AM 48.7333 -90.4667 282° West 370 426 40,000  Level Winnipeg Center
09:53AM 48.7833 -90.6500 293° West 370 426 40,000  Level Winnipeg Center
09:54AM 48.8000 -90.7667 282° West 370 426 40,000  Level Winnipeg Center
09:55AM 48.8500 -90.9167 297° West 370 426 40,000 300 Level Winnipeg Center
09:56AM 48.8667 -91.0667 280° West 370 426 40,600 540 Climbing Winnipeg Center
09:57AM 48.9167 -91.2167 297° West 360 414 41,100 480 Climbing Winnipeg Center
09:58AM 48.9333 -91.3667 280° West 350 403 41,600 480 Climbing Winnipeg Center
09:59AM 48.9500 -91.4833 282° West 350 403 42,100 240 Climbing Winnipeg Center
10:01AM 49.0257 -91.7934 288° West  Level FlightAware Approximate
10:03AM 49.0667 -92.0667 287° West 350 403 43,000  Level Winnipeg Center
10:04AM 49.1000 -92.1833 294° West 350 403 43,000  Level Winnipeg Center
10:05AM 49.1333 -92.3333 289° West 360 414 43,000  Level Winnipeg Center
10:06AM 49.1667 -92.4833 289° West 360 414 43,000  Level Winnipeg Center
10:07AM 49.2000 -92.6333 289° West 370 426 43,000  Level Winnipeg Center
10:08AM 49.2531 -92.9155 287° West  Level FlightAware Approximate
10:08AM 49.2167 -92.7833 280° West 370 426 43,000  Level Winnipeg Center
10:09AM 49.2500 -92.9500 287° West 380 437 43,000  Level Winnipeg Center
10:10AM 49.2833 -93.1000 289° West 380 437 43,000  Level Winnipeg Center
10:11AM 49.3167 -93.2500 289° West 380 437 43,000  Level Winnipeg Center
10:12AM 49.3333 -93.4167 279° West 380 437 43,000  Level Winnipeg Center
10:13AM 49.3833 -93.5667 297° West 380 437 43,000  Level Winnipeg Center
10:14AM 49.4000 -93.7333 279° West 380 437 43,000  Level Winnipeg Center
10:15AM 49.4333 -93.8833 289° West 380 437 43,000  Level Winnipeg Center
10:16AM 49.4500 -94.0500 279° West 380 437 43,000  Level Winnipeg Center
10:17AM 49.4833 -94.2167 287° West 380 437 43,000  Level Winnipeg Center
10:18AM 49.5000 -94.3667 280° West 380 437 43,000  Level Winnipeg Center
10:19AM 49.5000 -94.5167 270° West 380 437 43,000  Level Winnipeg Center
10:20AM 49.5167 -94.7000 278° West 380 437 43,000  Level Winnipeg Center
10:21AM 49.5333 -94.8500 280° West 380 437 43,000  Level Winnipeg Center
10:22AM 49.5667 -95.0000 289° West 380 437 43,000  Level Winnipeg Center
10:23AM 49.5667 -95.1833 270° West 380 437 43,000  Level Winnipeg Center
10:24AM 49.5833 -95.3333 280° West 380 437 43,000  Level Winnipeg Center
10:25AM 49.6000 -95.5000 279° West 380 437 43,000  Level Winnipeg Center
10:26AM 49.6000 -95.6833 270° West 370 426 43,000  Level Winnipeg Center
10:27AM 49.6167 -95.8333 280° West 380 437 43,000  Level Winnipeg Center
10:28AM 49.6333 -95.9833 280° West 380 437 43,000  Level Winnipeg Center
10:29AM 49.6667 -96.1667 286° West 390 449 43,000  Level Winnipeg Center
10:30AM 49.6667 -96.3167 270° West 390 449 43,000  Level Winnipeg Center
10:31AM 49.6833 -96.4667 280° West 390 449 43,000  Level Winnipeg Center
10:32AM 49.7000 -96.6500 278° West 390 449 43,000  Level Winnipeg Center
10:33AM 49.7000 -96.8167 270° West 390 449 43,000  Level Winnipeg Center
10:34AM 49.7167 -97.0000 278° West 390 449 43,000  Level Winnipeg Center
10:35AM 49.7333 -97.1500 280° West 390 449 43,000  Level Winnipeg Center
10:36AM 49.7333 -97.3333 270° West 390 449 43,000  Level Winnipeg Center
10:37AM 49.7500 -97.4833 280° West 390 449 43,000  Level Winnipeg Center
10:38AM 49.7667 -97.6667 278° West 390 449 43,000  Level Winnipeg Center
10:40AM 49.7833 -98.0000 275° West 390 449 43,000  Level Winnipeg Center
10:41AM 49.7833 -98.1500 270° West 390 449 43,000  Level Winnipeg Center
10:42AM 49.8000 -98.3167 279° West 390 449 43,000  Level Winnipeg Center
10:43AM 49.8167 -98.5000 278° West 390 449 43,000  Level Winnipeg Center
10:44AM 49.8333 -98.6500 280° West 390 449 43,000  Level Winnipeg Center
10:45AM 49.8500 -98.8333 278° West 390 449 43,000  Level Winnipeg Center
10:46AM 49.8667 -98.9833 280° West 390 449 43,000  Level Winnipeg Center
10:47AM 49.8833 -99.1500 279° West 390 449 43,000  Level Winnipeg Center
10:48AM 49.8833 -99.3333 270° West 390 449 43,000  Level Winnipeg Center
10:49AM 49.9000 -99.4833 280° West 390 449 43,000  Level Winnipeg Center
10:50AM 49.9167 -99.6667 278° West 390 449 43,000  Level Winnipeg Center
10:51AM 49.9333 -99.8167 280° West 390 449 43,000  Level Winnipeg Center
10:52AM 49.9333 -99.9833 270° West 390 449 43,000  Level Winnipeg Center
10:53AM 49.9500 -100.1667 278° West 390 449 43,000  Level Winnipeg Center
10:54AM 49.9667 -100.3167 280° West 390 449 43,000  Level Winnipeg Center
10:55AM 49.9833 -100.5000 278° West 390 449 43,000  Level Winnipeg Center
10:56AM 49.9833 -100.6667 270° West 390 449 43,000  Level Winnipeg Center
10:57AM 50.0000 -100.8500 278° West 390 449 43,000  Level Winnipeg Center
10:58AM 50.0167 -101.0000 280° West 390 449 43,000  Level Winnipeg Center
10:59AM 50.0000 -101.1833 262° West 400 460 43,000  Level Winnipeg Center
11:00AM 50.0167 -101.3333 280° West 400 460 43,000  Level Winnipeg Center
11:01AM 50.0167 -101.5167 270° West 390 449 43,000  Level Winnipeg Center
11:02AM 50.0333 -101.6833 279° West 400 460 43,000  Level Winnipeg Center
11:03AM 50.0500 -101.8667 278° West 400 460 43,000  Level Winnipeg Center
11:04AM 50.0333 -102.0500 262° West 400 460 43,000  Level Winnipeg Center
11:05AM 50.0500 -102.2333 278° West 400 460 43,000  Level Winnipeg Center
11:06AM 50.0500 -102.3833 270° West 400 460 43,000  Level Winnipeg Center
11:07AM 50.0667 -102.5500 279° West 400 460 43,000  Level Winnipeg Center
11:08AM 50.0500 -102.7333 262° West 400 460 43,000  Level Winnipeg Center
11:09AM 50.0667 -102.9167 278° West 400 460 43,000  Level Winnipeg Center
11:10AM 50.0667 -103.1000 270° West 400 460 43,000  Level Winnipeg Center
11:11AM 50.0667 -103.2500 270° West 400 460 43,000  Level Winnipeg Center
11:12AM 50.0667 -103.4333 270° West 400 460 43,000  Level Winnipeg Center
11:13AM 50.0667 -103.6000 270° West 400 460 43,000  Level Winnipeg Center
11:14AM 50.0833 -103.7833 278° West 400 460 43,000  Level Winnipeg Center
11:15AM 50.0667 -103.9500 261° West 400 460 43,000  Level Winnipeg Center
11:16AM 50.0667 -104.1167 270° West 400 460 43,000  Level Winnipeg Center
11:17AM 50.0833 -104.3000 278° West 400 460 43,000  Level Winnipeg Center
11:18AM 50.0833 -104.4833 270° West 400 460 43,000  Level Winnipeg Center
11:19AM 50.0667 -104.6333 260° West 400 460 43,000  Level Winnipeg Center
11:20AM 50.0833 -104.8167 278° West 410 472 43,000  Level Winnipeg Center
11:21AM 50.0833 -105.0000 270° West 400 460 43,000  Level Winnipeg Center
11:22AM 50.0833 -105.1833 270° West 400 460 43,000  Level Winnipeg Center
11:23AM 50.0667 -105.3500 261° West 400 460 43,000  Level Winnipeg Center
11:24AM 50.0833 -105.5333 278° West 400 460 43,000  Level Winnipeg Center
11:25AM 50.0833 -105.7167 270° West 400 460 43,000  Level Winnipeg Center
11:26AM 50.0833 -105.8667 270° West 400 460 43,000  Level Winnipeg Center
11:27AM 50.0667 -106.0500 262° West 400 460 43,000  Level Winnipeg Center
11:28AM 50.0667 -106.2333 270° West 410 472 43,000  Level Winnipeg Center
11:29AM 50.0667 -106.4167 270° West 410 472 43,000  Level Edmonton Center
11:30AM 50.0667 -106.5667 270° West 400 460 43,000  Level Edmonton Center
11:31AM 50.0667 -106.7667 270° West 410 472 43,000  Level Winnipeg Center
11:32AM 50.0667 -106.9500 270° West 410 472 43,000 -420 Level Winnipeg Center
11:33AM 50.0667 -107.1333 270° West 420 483 42,200 -900 Descending Winnipeg Center
11:34AM 50.0667 -107.3333 270° West 440 506 41,200 -1,020 Descending Winnipeg Center
11:35AM 50.0667 -107.5167 270° West 450 518 40,200 -600 Descending Winnipeg Center
11:36AM 50.0500 -107.7000 262° West 450 518 40,000 -120 Descending Winnipeg Center
11:37AM 50.0333 -107.9000 263° West 440 506 40,000  Level Edmonton Center
11:38AM 50.0333 -108.0833 270° West 430 495 40,000  Level Edmonton Center
11:39AM 50.0167 -108.2667 262° West 430 495 40,000  Level Edmonton Center
11:40AM 50.0333 -108.4667 277° West 440 506 40,000  Level Winnipeg Center
11:41AM 50.0167 -108.6667 263° West 430 495 40,000  Level Edmonton Center
11:42AM 50.0000 -108.8500 262° West 430 495 40,000  Level Edmonton Center
11:43AM 50.0167 -109.0333 278° West 430 495 40,000  Level Edmonton Center
11:44AM 50.0000 -109.2167 262° West 430 495 40,000  Level Edmonton Center
11:45AM 50.0000 -109.4000 270° West 430 495 40,000  Level Edmonton Center
11:46AM 50.0000 -109.6000 270° West 430 495 40,000  Level Edmonton Center
11:47AM 49.9833 -109.7833 262° West 430 495 40,000  Level Edmonton Center
11:48AM 49.9833 -109.9667 270° West 430 495 40,000  Level Winnipeg Center
11:49AM 49.9667 -110.1500 262° West 420 483 40,000  Level Edmonton Center
11:50AM 49.9667 -110.3333 270° West 420 483 40,000  Level Edmonton Center
11:51AM 49.9500 -110.5167 262° West 420 483 40,000  Level Edmonton Center
11:52AM 49.9333 -110.7000 262° West 430 495 40,000  Level Edmonton Center
11:53AM 49.9333 -110.8833 270° West 430 495 40,000  Level Edmonton Center
11:54AM 49.9333 -111.0667 270° West 430 495 40,000  Level Edmonton Center
11:55AM 49.9500 -111.2833 277° West 430 495 40,000  Level Edmonton Center
11:56AM 49.9333 -111.4667 262° West 430 495 40,000  Level Edmonton Center
11:57AM 49.9333 -111.6500 270° West 440 506 40,000  Level Edmonton Center
11:58AM 49.9500 -111.8333 278° West 440 506 40,000  Level Edmonton Center
11:59AM 49.9333 -112.0167 262° West 440 506 40,000  Level Edmonton Center
12:00PM 49.9500 -112.2167 277° West 440 506 40,000  Level Winnipeg Center
12:01PM 49.9333 -112.4000 262° West 440 506 40,000  Level Edmonton Center
12:02PM 49.9333 -112.6167 270° West 440 506 40,000  Level Edmonton Center
12:03PM 49.9333 -112.8000 270° West 440 506 40,000  Level Edmonton Center
12:04PM 49.9333 -112.9833 270° West 440 506 40,000  Level Edmonton Center
12:05PM 49.9333 -113.1667 270° West 430 495 40,000  Level Edmonton Center
12:06PM 49.9333 -113.3500 270° West 440 506 40,000  Level Edmonton Center
12:07PM 49.9167 -113.5333 262° West 440 506 40,000  Level Edmonton Center
12:08PM 49.9167 -113.7500 270° West 430 495 40,000  Level Edmonton Center
12:09PM 49.9167 -113.9333 270° West 440 506 40,000  Level Edmonton Center
12:10PM 49.9167 -114.1167 270° West 430 495 40,000  Level Edmonton Center
12:11PM 49.9167 -114.3000 270° West 430 495 40,000  Level Edmonton Center
12:12PM 49.9167 -114.4833 270° West 440 506 40,000  Level Edmonton Center
12:13PM 49.9167 -114.6833 270° West 430 495 40,000  Level Edmonton Center
12:14PM 49.9000 -114.8667 262° West 440 506 40,000  Level Edmonton Center
12:15PM 49.9000 -115.0500 270° West 430 495 40,000  Level Edmonton Center
12:16PM 49.9000 -115.2333 270° West 440 506 40,000  Level Edmonton Center
12:17PM 49.8833 -115.4167 262° West 440 506 40,000  Level Edmonton Center
12:18PM 49.8667 -115.6333 263° West 440 506 40,000  Level Edmonton Center
12:19PM 49.8667 -115.8167 270° West 430 495 40,000  Level Edmonton Center
12:20PM 49.8667 -116.0000 270° West 440 506 40,000  Level Edmonton Center
12:21PM 49.8667 -116.1833 270° West 430 495 40,000  Level Edmonton Center
12:22PM 49.8500 -116.3667 262° West 430 495 40,000  Level Edmonton Center
12:23PM 49.8333 -116.5667 263° West 430 495 40,000  Level Edmonton Center
12:24PM 49.8333 -116.7500 270° West 430 495 40,000  Level Edmonton Center
12:25PM 49.8333 -116.9333 270° West 440 506 40,000  Level Edmonton Center
12:26PM 49.8167 -117.1167 262° West 440 506 40,000  Level Edmonton Center
12:27PM 49.8167 -117.3000 270° West 440 506 40,000  Level Edmonton Center
12:28PM 49.8000 -117.5167 263° West 440 506 40,000  Level Edmonton Center
12:29PM 49.8000 -117.7000 270° West 440 506 40,000  Level Edmonton Center
12:30PM 49.7667 -117.9000 256° West 440 506 40,000  Level Edmonton Center
12:31PM 49.7667 -118.0833 270° West 440 506 40,000  Level Edmonton Center
12:32PM 49.7667 -118.2667 270° West 440 506 40,000  Level Edmonton Center
12:33PM 49.7500 -118.4500 262° West 440 506 40,000  Level Edmonton Center
12:34PM 49.7333 -118.6500 263° West 440 506 40,000  Level Edmonton Center
12:35PM 49.7333 -118.8333 270° West 440 506 40,000  Level Edmonton Center
12:36PM 49.7167 -119.0000 261° West 440 506 40,000  Level Edmonton Center
12:37PM 49.7167 -119.2333 270° West 440 506 40,000  Level Vancouver Center
12:38PM 49.7000 -119.4167 262° West 450 518 40,000  Level Vancouver Center
12:39PM 49.7000 -119.5833 270° West 440 506 40,000  Level Vancouver Center
12:40PM 49.6833 -119.7667 262° West 450 518 40,000  Level Vancouver Center
12:41PM 49.6833 -119.9833 270° West 440 506 40,000 -480 Level Vancouver Center
12:42PM 49.6500 -120.1667 254° West 450 518 39,100 -1,560 Descending Vancouver Center
12:43PM 49.6167 -120.3667 256° West 440 506 36,900 -2,100 Descending Vancouver Center
12:44PM 49.6167 -120.5500 270° West 450 518 35,000 -2,040 Descending Vancouver Center
12:45PM 49.5833 -120.7667 257° West 460 529 32,900 -2,100 Descending Vancouver Center
12:46PM 49.5500 -120.9500 254° West 470 541 30,900 -1,980 Descending Vancouver Center
12:47PM 49.5333 -121.1167 261° West 470 541 29,000 -2,040 Descending Vancouver Center
12:48PM 49.5167 -121.3333 263° West 480 552 26,900 -2,160 Descending Vancouver Center
12:49PM 49.4833 -121.5333 256° West 470 541 24,700 -3,000 Descending Vancouver Center
12:50PM 49.4667 -121.7167 262° West 450 518 20,900 -3,000 Descending Vancouver Center
12:51PM 49.4333 -121.8667 251° West 400 460 18,700 -2,100 Descending Vancouver Center
12:52PM 49.4167 -122.0000 259° West 330 380 16,700 -1,860 Descending Vancouver Center
12:53PM 49.4167 -122.1500 270° West 300 345 15,000 -1,620 Descending Vancouver Center
12:54PM 49.4000 -122.2667 258° West 280 322 13,500 -1,560 Descending Vancouver Center
12:55PM 49.3833 -122.3833 258° West 280 322 11,900 -1,500 Descending Vancouver Center
12:56PM 49.3667 -122.5000 258° West 280 322 10,500 -960 Descending Vancouver Center
12:57PM 49.3667 -122.6167 270° West 290 334 10,000 -660 Descending Vancouver Center
12:58PM 49.3500 -122.7500 259° West 280 322 9,200 -1,200 Descending Vancouver Center
12:59PM 49.3333 -122.8500 256° West 280 322 7,600 -1,200 Descending Vancouver Center
01:00PM 49.2500 -122.8333 173° South 260 299 6,800 -1,200 Descending Vancouver Center
01:01PM 49.2000 -122.8000 156° South 260 299 5,200 -1,500 Descending Vancouver Center
01:02PM 49.1167 -122.8333 195° South 260 299 3,900 -900 Descending Vancouver Center
01:03PM 49.1333 -122.9000 291° West 220 253 3,500 -780 Descending Vancouver Center
01:04PM 49.1500 -122.9833 287° West 190 219 2,400 -1,140 Descending Vancouver Center
01:05PM 49.1500 -123.0667 270° West 170 196 1,300 -900 Descending Vancouver Center
01:06PM 49.1667 -123.1167 297° West 140 161 600 -720 Descending Vancouver Center